createdAt,value
2019-02-10T00:00:01.391Z,0.00
2019-02-10T00:01:01.373Z,0.00
2019-02-10T00:02:01.373Z,0.00
2019-02-10T00:03:01.373Z,0.00
2019-02-10T00:04:01.377Z,0.00
2019-02-10T00:05:01.357Z,0.00
2019-02-10T00:06:01.349Z,0.00
2019-02-10T00:07:01.339Z,0.00
2019-02-10T00:08:01.330Z,0.00
2019-02-10T00:09:01.325Z,0.00
2019-02-10T00:10:01.331Z,0.00
2019-02-10T00:11:01.317Z,0.00
2019-02-10T00:12:01.307Z,0.00
2019-02-10T00:13:01.311Z,0.00
2019-02-10T00:14:01.297Z,0.00
2019-02-10T00:15:01.283Z,0.00
2019-02-10T00:16:01.278Z,0.00
2019-02-10T00:17:01.276Z,0.00
2019-02-10T00:18:01.259Z,0.00
2019-02-10T00:19:01.264Z,0.00
2019-02-10T00:20:01.244Z,0.00
2019-02-10T00:21:01.238Z,0.00
2019-02-10T00:22:01.232Z,0.00
2019-02-10T00:23:01.231Z,0.00
2019-02-10T00:24:01.225Z,0.00
2019-02-10T00:25:01.208Z,0.00
2019-02-10T00:26:01.210Z,0.00
2019-02-10T00:27:01.208Z,0.00
2019-02-10T00:28:01.248Z,0.00
2019-02-10T00:29:01.189Z,0.00
2019-02-10T00:30:01.172Z,0.00
2019-02-10T00:31:01.167Z,0.00
2019-02-10T00:32:01.159Z,0.00
2019-02-10T00:33:01.171Z,0.00
2019-02-10T00:34:01.209Z,0.00
2019-02-10T00:35:01.142Z,0.00
2019-02-10T00:36:01.183Z,0.00
2019-02-10T00:37:01.119Z,0.00
2019-02-10T00:38:01.117Z,0.00
2019-02-10T00:39:01.113Z,0.00
2019-02-10T00:40:01.118Z,0.00
2019-02-10T00:41:01.112Z,0.00
2019-02-10T00:42:01.096Z,0.00
2019-02-10T00:43:01.115Z,0.00
2019-02-10T00:44:01.068Z,0.00
2019-02-10T00:45:01.067Z,0.00
2019-02-10T00:46:01.065Z,0.00
2019-02-10T00:47:01.054Z,0.00
2019-02-10T00:48:01.048Z,0.00
2019-02-10T00:49:01.033Z,0.00
2019-02-10T00:50:01.027Z,0.00
2019-02-10T00:51:01.021Z,0.00
2019-02-10T00:52:01.009Z,0.00
2019-02-10T00:53:01.007Z,0.00
2019-02-10T00:54:01.000Z,0.00
2019-02-10T00:55:00.988Z,0.00
2019-02-10T00:56:00.988Z,0.00
2019-02-10T00:57:00.976Z,0.00
2019-02-10T00:58:00.971Z,0.00
2019-02-10T00:59:00.965Z,0.00
2019-02-10T01:00:00.961Z,0.00
2019-02-10T01:01:00.951Z,0.00
2019-02-10T01:02:00.961Z,0.00
2019-02-10T01:03:00.929Z,0.00
2019-02-10T01:04:00.919Z,0.00
2019-02-10T01:05:01.061Z,0.00
2019-02-10T01:06:00.907Z,0.00
2019-02-10T01:07:00.906Z,0.00
2019-02-10T01:08:00.891Z,0.00
2019-02-10T01:09:00.893Z,0.00
2019-02-10T01:10:00.896Z,0.00
2019-02-10T01:11:00.869Z,0.00
2019-02-10T01:12:00.861Z,0.00
2019-02-10T01:13:00.857Z,0.00
2019-02-10T01:14:00.850Z,0.00
2019-02-10T01:15:00.855Z,0.00
2019-02-10T01:16:00.844Z,0.00
2019-02-10T01:17:00.841Z,0.00
2019-02-10T01:18:00.816Z,0.00
2019-02-10T01:19:00.807Z,0.00
2019-02-10T01:20:00.808Z,0.00
2019-02-10T01:21:00.795Z,0.00
2019-02-10T01:22:00.787Z,0.00
2019-02-10T01:23:00.783Z,0.00
2019-02-10T01:24:00.781Z,0.00
2019-02-10T01:25:00.781Z,0.00
2019-02-10T01:26:00.755Z,0.00
2019-02-10T01:27:00.747Z,0.00
2019-02-10T01:28:00.742Z,0.00
2019-02-10T01:29:00.727Z,0.00
2019-02-10T01:30:00.746Z,0.00
2019-02-10T01:31:00.729Z,0.00
2019-02-10T01:32:00.719Z,0.00
2019-02-10T01:33:00.765Z,0.00
2019-02-10T01:34:00.705Z,0.00
2019-02-10T01:35:00.694Z,0.00
2019-02-10T01:36:00.694Z,0.00
2019-02-10T01:37:00.683Z,0.00
2019-02-10T01:38:00.698Z,0.00
2019-02-10T01:39:00.659Z,0.00
2019-02-10T01:40:00.653Z,0.00
2019-02-10T01:41:00.649Z,0.00
2019-02-10T01:42:00.651Z,0.00
2019-02-10T01:43:00.639Z,0.00
2019-02-10T01:44:00.673Z,0.00
2019-02-10T01:45:00.726Z,0.00
2019-02-10T01:46:00.635Z,0.00
2019-02-10T01:47:00.613Z,0.00
2019-02-10T01:48:00.594Z,0.00
2019-02-10T01:49:00.615Z,0.00
2019-02-10T01:50:00.578Z,0.00
2019-02-10T01:51:00.591Z,0.00
2019-02-10T01:52:00.584Z,0.00
2019-02-10T01:53:00.555Z,0.00
2019-02-10T01:54:00.547Z,0.00
2019-02-10T01:55:00.535Z,0.00
2019-02-10T01:56:00.534Z,0.00
2019-02-10T01:57:00.520Z,0.00
2019-02-10T01:58:00.523Z,0.00
2019-02-10T01:59:00.516Z,0.00
2019-02-10T02:00:00.549Z,0.00
2019-02-10T02:01:00.488Z,0.00
2019-02-10T02:02:00.496Z,0.00
2019-02-10T02:03:00.476Z,0.00
2019-02-10T02:04:00.480Z,0.00
2019-02-10T02:05:00.473Z,0.00
2019-02-10T02:06:00.473Z,0.00
2019-02-10T02:07:00.478Z,0.00
2019-02-10T02:08:00.461Z,0.00
2019-02-10T02:09:00.438Z,0.00
2019-02-10T02:10:00.424Z,0.00
2019-02-10T02:11:00.431Z,0.00
2019-02-10T02:12:00.413Z,0.00
2019-02-10T02:13:00.410Z,0.00
2019-02-10T02:14:00.388Z,0.00
2019-02-10T02:15:00.382Z,0.00
2019-02-10T02:16:00.374Z,0.00
2019-02-10T02:17:00.390Z,0.00
2019-02-10T02:18:00.358Z,0.00
2019-02-10T02:19:00.376Z,0.00
2019-02-10T02:20:00.359Z,0.00
2019-02-10T02:21:00.335Z,0.00
2019-02-10T02:22:00.329Z,0.00
2019-02-10T02:23:00.323Z,0.00
2019-02-10T02:24:00.318Z,0.00
2019-02-10T02:25:00.332Z,0.00
2019-02-10T02:26:00.299Z,0.00
2019-02-10T02:27:00.310Z,0.00
2019-02-10T02:28:00.278Z,0.00
2019-02-10T02:29:00.292Z,0.00
2019-02-10T02:30:00.407Z,0.00
2019-02-10T02:31:00.248Z,0.00
2019-02-10T02:32:00.470Z,0.00
2019-02-10T02:33:00.247Z,0.00
2019-02-10T02:34:00.269Z,0.00
2019-02-10T02:35:00.224Z,0.00
2019-02-10T02:36:00.209Z,0.00
2019-02-10T02:37:07.578Z,0.00
2019-02-10T02:38:00.201Z,0.00
2019-02-10T02:39:00.204Z,0.00
2019-02-10T02:40:00.206Z,0.00
2019-02-10T02:41:00.166Z,0.00
2019-02-10T02:42:00.162Z,0.00
2019-02-10T02:43:00.160Z,0.00
2019-02-10T02:44:00.150Z,0.00
2019-02-10T02:45:00.390Z,0.00
2019-02-10T02:46:00.158Z,0.00
2019-02-10T02:47:00.137Z,0.00
2019-02-10T02:48:00.108Z,0.00
2019-02-10T02:49:00.104Z,0.00
2019-02-10T02:50:00.447Z,0.00
2019-02-10T02:51:01.024Z,0.00
2019-02-10T02:52:00.086Z,0.00
2019-02-10T02:53:00.077Z,0.00
2019-02-10T02:54:00.061Z,0.00
2019-02-10T02:55:00.117Z,0.00
2019-02-10T02:56:00.043Z,0.00
2019-02-10T02:57:00.045Z,0.00
2019-02-10T03:14:00.729Z,0.00
2019-02-10T03:15:00.685Z,0.00
2019-02-10T03:16:00.663Z,0.00
2019-02-10T03:17:00.647Z,0.00
2019-02-10T03:18:00.658Z,0.00
2019-02-10T03:19:00.634Z,0.00
2019-02-10T03:20:00.621Z,0.00
2019-02-10T03:21:00.610Z,0.00
2019-02-10T03:22:00.600Z,0.00
2019-02-10T03:23:00.594Z,0.00
2019-02-10T03:24:00.588Z,0.00
2019-02-10T03:25:00.594Z,0.00
2019-02-10T03:26:00.567Z,0.00
2019-02-10T03:27:00.582Z,0.00
2019-02-10T03:28:00.547Z,0.00
2019-02-10T03:29:00.526Z,0.00
2019-02-10T03:30:00.527Z,0.00
2019-02-10T03:31:00.517Z,0.00
2019-02-10T03:32:00.510Z,0.00
2019-02-10T03:33:00.508Z,0.00
2019-02-10T03:34:00.488Z,0.00
2019-02-10T03:35:00.484Z,0.00
2019-02-10T03:36:00.470Z,0.00
2019-02-10T03:37:00.471Z,0.00
2019-02-10T03:38:00.469Z,0.00
2019-02-10T03:39:00.444Z,0.00
2019-02-10T03:40:00.432Z,0.00
2019-02-10T03:41:00.435Z,0.00
2019-02-10T03:42:00.428Z,0.00
2019-02-10T03:43:00.410Z,0.00
2019-02-10T03:44:00.411Z,0.00
2019-02-10T03:45:00.397Z,0.00
2019-02-10T03:46:00.387Z,0.00
2019-02-10T03:47:00.426Z,0.00
2019-02-10T03:48:00.373Z,0.00
2019-02-10T03:49:00.374Z,0.00
2019-02-10T03:50:00.697Z,0.00
2019-02-10T03:51:00.346Z,0.00
2019-02-10T03:52:00.337Z,0.00
2019-02-10T03:53:00.335Z,0.00
2019-02-10T03:54:00.323Z,0.00
2019-02-10T03:55:00.433Z,0.00
2019-02-10T03:56:00.303Z,0.00
2019-02-10T03:57:00.304Z,0.00
2019-02-10T03:58:00.340Z,0.00
2019-02-10T03:59:00.279Z,0.00
2019-02-10T04:00:00.303Z,0.00
2019-02-10T04:01:00.267Z,0.00
2019-02-10T04:02:00.256Z,0.00
2019-02-10T04:03:00.256Z,0.00
2019-02-10T04:04:00.239Z,0.00
2019-02-10T04:05:00.275Z,0.00
2019-02-10T04:06:00.224Z,0.00
2019-02-10T04:07:00.219Z,0.00
2019-02-10T04:08:00.267Z,0.00
2019-02-10T04:09:00.262Z,0.00
2019-02-10T04:10:00.393Z,0.00
2019-02-10T04:11:00.203Z,0.00
2019-02-10T04:12:00.182Z,0.00
2019-02-10T04:13:00.236Z,0.00
2019-02-10T04:14:00.162Z,0.00
2019-02-10T04:15:00.279Z,0.00
2019-02-10T04:16:00.206Z,0.00
2019-02-10T04:17:00.146Z,0.00
2019-02-10T04:18:00.128Z,0.00
2019-02-10T04:19:00.121Z,0.00
2019-02-10T04:20:00.250Z,0.00
2019-02-10T04:21:00.135Z,0.00
2019-02-10T04:22:00.104Z,0.00
2019-02-10T04:23:00.245Z,0.00
2019-02-10T04:24:00.093Z,0.00
2019-02-10T04:25:00.090Z,0.00
2019-02-10T04:26:00.068Z,0.00
2019-02-10T04:27:00.051Z,0.00
2019-02-10T04:28:00.063Z,0.00
2019-02-10T04:29:00.049Z,0.00
2019-02-10T04:30:00.141Z,0.00
2019-02-10T04:31:00.042Z,0.00
2019-02-10T04:32:00.011Z,0.00
2019-02-10T04:33:00.057Z,0.00
2019-02-10T04:33:59.995Z,0.00
2019-02-10T04:34:59.991Z,0.00
2019-02-10T04:35:59.988Z,0.00
2019-02-10T04:36:59.970Z,0.00
2019-02-10T04:38:00.046Z,0.00
2019-02-10T04:38:59.952Z,0.00
2019-02-10T04:39:59.949Z,0.00
2019-02-10T04:40:59.942Z,0.00
2019-02-10T04:41:59.930Z,0.00
2019-02-10T04:42:59.957Z,0.00
2019-02-10T04:43:59.944Z,0.00
2019-02-10T04:44:59.912Z,0.00
2019-02-10T04:45:59.895Z,0.00
2019-02-10T04:46:59.890Z,0.00
2019-02-10T04:47:59.875Z,0.00
2019-02-10T04:48:59.887Z,0.00
2019-02-10T04:49:59.869Z,0.00
2019-02-10T04:50:59.886Z,0.00
2019-02-10T04:51:59.850Z,0.00
2019-02-10T04:52:59.838Z,0.00
2019-02-10T04:53:59.834Z,0.00
2019-02-10T04:54:59.855Z,0.00
2019-02-10T04:55:59.828Z,0.00
2019-02-10T04:56:59.827Z,0.00
2019-02-10T04:57:59.805Z,0.00
2019-02-10T04:58:59.791Z,0.00
2019-02-10T04:59:59.783Z,0.00
2019-02-10T05:00:59.774Z,0.00
2019-02-10T05:01:59.773Z,0.00
2019-02-10T05:02:59.768Z,0.00
2019-02-10T05:03:59.771Z,0.00
2019-02-10T05:04:59.750Z,0.00
2019-02-10T05:05:59.738Z,0.00
2019-02-10T05:06:59.728Z,0.00
2019-02-10T05:07:59.718Z,0.00
2019-02-10T05:08:59.711Z,0.00
2019-02-10T05:09:59.715Z,0.00
2019-02-10T05:10:59.711Z,0.00
2019-02-10T05:11:59.678Z,0.00
2019-02-10T05:12:59.678Z,0.00
2019-02-10T05:13:59.671Z,0.00
2019-02-10T05:14:59.670Z,0.00
2019-02-10T05:15:59.668Z,0.00
2019-02-10T05:16:59.659Z,0.00
2019-02-10T05:17:59.633Z,0.00
2019-02-10T05:18:59.633Z,0.00
2019-02-10T05:19:59.618Z,0.00
2019-02-10T05:20:59.616Z,0.00
2019-02-10T05:21:59.599Z,0.00
2019-02-10T05:22:59.601Z,0.00
2019-02-10T05:24:03.653Z,0.00
2019-02-10T05:24:59.616Z,0.00
2019-02-10T05:25:59.579Z,0.00
2019-02-10T05:26:59.567Z,0.00
2019-02-10T05:27:59.560Z,0.00
2019-02-10T05:28:59.560Z,0.00
2019-02-10T05:29:59.551Z,0.00
2019-02-10T05:30:59.544Z,0.00
2019-02-10T05:31:59.535Z,0.00
2019-02-10T05:32:59.516Z,0.00
2019-02-10T05:33:59.516Z,0.00
2019-02-10T05:34:59.503Z,0.00
2019-02-10T05:35:59.498Z,0.00
2019-02-10T05:36:59.503Z,0.00
2019-02-10T05:38:04.202Z,0.00
2019-02-10T05:38:59.471Z,0.00
2019-02-10T05:39:59.463Z,0.00
2019-02-10T05:40:59.450Z,0.00
2019-02-10T05:41:59.440Z,0.00
2019-02-10T05:42:59.442Z,0.00
2019-02-10T05:43:59.443Z,0.00
2019-02-10T05:44:59.447Z,0.00
2019-02-10T05:45:59.411Z,0.00
2019-02-10T05:46:59.406Z,0.00
2019-02-10T05:47:59.402Z,0.00
2019-02-10T05:48:59.394Z,0.00
2019-02-10T05:49:59.380Z,0.00
2019-02-10T05:50:59.384Z,0.00
2019-02-10T05:51:59.362Z,0.00
2019-02-10T05:52:59.359Z,0.00
2019-02-10T05:53:59.352Z,0.00
2019-02-10T05:54:59.349Z,0.00
2019-02-10T05:55:59.335Z,0.00
2019-02-10T05:56:59.328Z,0.00
2019-02-10T05:57:59.328Z,0.00
2019-02-10T05:58:59.323Z,0.00
2019-02-10T05:59:59.312Z,0.00
2019-02-10T06:00:59.311Z,0.00
2019-02-10T06:01:59.289Z,0.00
2019-02-10T06:02:59.284Z,0.00
2019-02-10T06:03:59.291Z,0.00
2019-02-10T06:04:59.291Z,0.00
2019-02-10T06:05:59.261Z,0.00
2019-02-10T06:06:59.254Z,0.00
2019-02-10T06:07:59.255Z,0.00
2019-02-10T06:08:59.256Z,0.00
2019-02-10T06:09:59.240Z,0.00
2019-02-10T06:10:59.242Z,0.00
2019-02-10T06:11:59.230Z,0.00
2019-02-10T06:12:59.228Z,0.00
2019-02-10T06:13:59.206Z,0.00
2019-02-10T06:14:59.226Z,0.00
2019-02-10T06:15:59.191Z,0.00
2019-02-10T06:16:59.189Z,0.00
2019-02-10T06:17:59.185Z,0.00
2019-02-10T06:18:59.171Z,0.00
2019-02-10T06:19:59.174Z,0.00
2019-02-10T06:20:59.152Z,0.00
2019-02-10T06:21:59.189Z,0.00
2019-02-10T06:22:59.149Z,0.00
2019-02-10T06:23:59.141Z,0.00
2019-02-10T06:24:59.144Z,0.00
2019-02-10T06:25:59.135Z,0.00
2019-02-10T06:26:59.120Z,0.00
2019-02-10T06:27:59.125Z,0.00
2019-02-10T06:28:59.129Z,0.00
2019-02-10T06:29:59.108Z,0.00
2019-02-10T06:30:59.101Z,0.00
2019-02-10T06:31:59.092Z,0.00
2019-02-10T06:32:59.082Z,0.00
2019-02-10T06:33:59.078Z,4.00
2019-02-10T06:34:59.071Z,4.00
2019-02-10T06:35:59.105Z,4.00
2019-02-10T06:36:59.059Z,4.00
2019-02-10T06:37:59.055Z,4.00
2019-02-10T06:38:59.047Z,4.00
2019-02-10T06:39:59.049Z,4.00
2019-02-10T06:40:59.035Z,8.00
2019-02-10T06:41:59.034Z,8.00
2019-02-10T06:42:59.034Z,4.00
2019-02-10T06:43:59.036Z,8.00
2019-02-10T06:44:59.027Z,8.00
2019-02-10T06:45:59.003Z,8.00
2019-02-10T06:46:58.998Z,8.00
2019-02-10T06:47:58.991Z,8.00
2019-02-10T06:48:58.982Z,12.00
2019-02-10T06:49:58.973Z,12.00
2019-02-10T06:50:58.984Z,12.00
2019-02-10T06:51:58.973Z,12.00
2019-02-10T06:52:58.977Z,16.00
2019-02-10T06:53:58.950Z,16.00
2019-02-10T06:54:58.949Z,16.00
2019-02-10T06:55:58.941Z,16.00
2019-02-10T06:56:58.939Z,20.00
2019-02-10T06:57:58.933Z,24.00
2019-02-10T06:58:58.945Z,24.00
2019-02-10T06:59:58.913Z,20.00
2019-02-10T07:00:58.912Z,24.00
2019-02-10T07:01:58.909Z,28.00
2019-02-10T07:02:58.897Z,28.00
2019-02-10T07:03:58.918Z,28.00
2019-02-10T07:04:58.892Z,32.00
2019-02-10T07:05:58.900Z,36.00
2019-02-10T07:06:58.885Z,40.00
2019-02-10T07:07:58.878Z,40.00
2019-02-10T07:08:58.883Z,44.00
2019-02-10T07:09:58.861Z,44.00
2019-02-10T07:10:58.854Z,48.00
2019-02-10T07:11:58.847Z,52.00
2019-02-10T07:12:58.839Z,52.00
2019-02-10T07:13:58.833Z,60.00
2019-02-10T07:14:58.823Z,64.00
2019-02-10T07:15:58.831Z,64.00
2019-02-10T07:16:58.809Z,68.00
2019-02-10T07:17:58.809Z,68.00
2019-02-10T07:18:58.806Z,68.00
2019-02-10T07:19:58.799Z,72.00
2019-02-10T07:20:58.794Z,76.00
2019-02-10T07:21:58.787Z,80.00
2019-02-10T07:22:58.786Z,76.00
2019-02-10T07:23:58.778Z,84.00
2019-02-10T07:24:58.781Z,84.00
2019-02-10T07:25:58.765Z,88.00
2019-02-10T07:26:58.753Z,92.00
2019-02-10T07:27:58.750Z,92.00
2019-02-10T07:28:58.753Z,96.00
2019-02-10T07:29:58.737Z,100.00
2019-02-10T07:30:58.741Z,100.00
2019-02-10T07:31:58.745Z,100.00
2019-02-10T07:32:58.740Z,108.00
2019-02-10T07:33:58.757Z,116.00
2019-02-10T07:34:58.709Z,116.00
2019-02-10T07:35:58.728Z,104.00
2019-02-10T07:36:58.719Z,120.00
2019-02-10T07:37:58.702Z,132.00
2019-02-10T07:38:58.692Z,128.00
2019-02-10T07:39:58.694Z,136.00
2019-02-10T07:40:58.676Z,136.00
2019-02-10T07:41:58.675Z,132.00
2019-02-10T07:42:58.665Z,144.00
2019-02-10T07:43:58.670Z,152.00
2019-02-10T07:44:58.663Z,148.00
2019-02-10T07:45:58.656Z,172.00
2019-02-10T07:46:58.647Z,164.00
2019-02-10T07:47:58.650Z,172.00
2019-02-10T07:48:58.643Z,172.00
2019-02-10T07:49:58.635Z,180.00
2019-02-10T07:50:58.630Z,184.00
2019-02-10T07:51:58.624Z,188.00
2019-02-10T07:52:58.608Z,192.00
2019-02-10T07:53:58.613Z,204.00
2019-02-10T07:54:58.610Z,192.00
2019-02-10T07:55:58.599Z,216.00
2019-02-10T07:56:58.597Z,172.00
2019-02-10T07:57:58.597Z,200.00
2019-02-10T07:58:58.588Z,184.00
2019-02-10T07:59:58.577Z,180.00
2019-02-10T08:00:58.577Z,220.00
2019-02-10T08:01:58.561Z,220.00
2019-02-10T08:02:58.561Z,228.00
2019-02-10T08:03:58.571Z,240.00
2019-02-10T08:04:58.545Z,248.00
2019-02-10T08:05:59.785Z,236.00
2019-02-10T08:06:58.548Z,248.00
2019-02-10T08:07:58.534Z,236.00
2019-02-10T08:08:58.529Z,252.00
2019-02-10T08:09:58.523Z,264.00
2019-02-10T08:10:58.523Z,256.00
2019-02-10T08:11:58.519Z,268.00
2019-02-10T08:12:58.517Z,280.00
2019-02-10T08:13:58.511Z,240.00
2019-02-10T08:14:58.496Z,272.00
2019-02-10T08:15:58.537Z,272.00
2019-02-10T08:16:58.490Z,280.00
2019-02-10T08:17:58.495Z,312.00
2019-02-10T08:18:58.484Z,240.00
2019-02-10T08:19:58.478Z,324.00
2019-02-10T08:20:58.470Z,320.00
2019-02-10T08:21:58.467Z,336.00
2019-02-10T08:22:58.478Z,344.00
2019-02-10T08:23:58.471Z,352.00
2019-02-10T08:24:58.444Z,372.00
2019-02-10T08:25:58.448Z,388.00
2019-02-10T08:26:58.448Z,388.00
2019-02-10T08:27:58.432Z,400.00
2019-02-10T08:28:58.442Z,420.00
2019-02-10T08:29:58.435Z,444.00
2019-02-10T08:30:58.415Z,444.00
2019-02-10T08:31:58.430Z,476.00
2019-02-10T08:32:58.406Z,472.00
2019-02-10T08:33:58.403Z,508.00
2019-02-10T08:34:58.400Z,516.00
2019-02-10T08:35:58.416Z,548.00
2019-02-10T08:36:58.411Z,556.00
2019-02-10T08:37:58.394Z,624.00
2019-02-10T08:38:58.419Z,660.00
2019-02-10T08:39:58.414Z,696.00
2019-02-10T08:40:58.403Z,712.00
2019-02-10T08:41:58.377Z,752.00
2019-02-10T08:42:58.391Z,732.00
2019-02-10T08:43:58.367Z,816.00
2019-02-10T08:44:58.358Z,820.00
2019-02-10T08:45:58.347Z,864.00
2019-02-10T08:46:58.354Z,860.00
2019-02-10T08:47:58.332Z,828.00
2019-02-10T08:48:58.369Z,868.00
2019-02-10T08:49:58.334Z,904.00
2019-02-10T08:50:58.339Z,884.00
2019-02-10T08:51:58.325Z,848.00
2019-02-10T08:52:58.326Z,896.00
2019-02-10T08:53:58.335Z,844.00
2019-02-10T08:54:58.312Z,944.00
2019-02-10T08:55:58.300Z,788.00
2019-02-10T08:56:58.297Z,852.00
2019-02-10T08:57:58.382Z,840.00
2019-02-10T08:58:58.325Z,904.00
2019-02-10T08:59:58.294Z,836.00
2019-02-10T09:00:58.297Z,956.00
2019-02-10T09:01:58.278Z,900.00
2019-02-10T09:03:06.931Z,968.00
2019-02-10T09:05:02.772Z,1056.00
2019-02-10T09:06:02.755Z,1076.00
2019-02-10T09:07:02.748Z,1104.00
2019-02-10T09:08:02.738Z,1108.00
2019-02-10T09:09:02.908Z,1072.00
2019-02-10T09:10:02.727Z,1084.00
2019-02-10T09:11:02.728Z,1060.00
2019-02-10T09:12:02.721Z,1092.00
2019-02-10T09:13:02.713Z,1072.00
2019-02-10T09:14:02.714Z,1072.00
2019-02-10T09:15:02.707Z,1068.00
2019-02-10T09:16:02.707Z,1076.00
2019-02-10T09:17:02.695Z,960.00
2019-02-10T09:18:02.697Z,960.00
2019-02-10T09:19:02.697Z,992.00
2019-02-10T09:20:02.689Z,904.00
2019-02-10T09:21:02.725Z,1020.00
2019-02-10T09:22:02.683Z,1008.00
2019-02-10T09:23:02.671Z,968.00
2019-02-10T09:24:02.678Z,944.00
2019-02-10T09:25:02.679Z,964.00
2019-02-10T09:26:02.668Z,996.00
2019-02-10T09:27:02.654Z,920.00
2019-02-10T09:28:02.748Z,964.00
2019-02-10T09:29:02.657Z,1152.00
2019-02-10T09:30:02.647Z,1080.00
2019-02-10T09:31:02.690Z,1024.00
2019-02-10T09:32:02.635Z,1080.00
2019-02-10T09:33:02.641Z,1132.00
2019-02-10T09:34:02.718Z,1152.00
2019-02-10T09:35:02.625Z,1252.00
2019-02-10T09:36:02.623Z,1096.00
2019-02-10T09:37:02.721Z,1220.00
2019-02-10T09:38:02.847Z,1356.00
2019-02-10T09:39:10.408Z,1264.00
2019-02-10T09:40:02.625Z,1284.00
2019-02-10T09:41:02.609Z,1180.00
2019-02-10T09:42:02.602Z,1288.00
2019-02-10T09:43:02.600Z,1284.00
2019-02-10T09:44:02.676Z,1188.00
2019-02-10T09:45:02.656Z,1408.00
2019-02-10T09:46:02.597Z,1264.00
2019-02-10T09:47:02.593Z,1196.00
2019-02-10T09:48:02.615Z,908.00
2019-02-10T09:49:02.610Z,1028.00
2019-02-10T09:50:02.645Z,1244.00
2019-02-10T09:51:02.601Z,1316.00
2019-02-10T09:52:02.600Z,1260.00
2019-02-10T09:53:02.596Z,1336.00
2019-02-10T09:54:02.601Z,1312.00
2019-02-10T09:55:02.581Z,1256.00
2019-02-10T09:56:02.554Z,1252.00
2019-02-10T09:57:02.564Z,1444.00
2019-02-10T09:58:02.543Z,1496.00
2019-02-10T09:59:02.568Z,1452.00
2019-02-10T10:00:02.591Z,1416.00
2019-02-10T10:01:02.618Z,1524.00
2019-02-10T10:02:02.559Z,1548.00
2019-02-10T10:03:02.538Z,1664.00
2019-02-10T10:04:02.531Z,1540.00
2019-02-10T10:05:02.546Z,1648.00
2019-02-10T10:06:02.527Z,1468.00
2019-02-10T10:07:02.602Z,1560.00
2019-02-10T10:08:02.542Z,1544.00
2019-02-10T10:09:02.673Z,1684.00
2019-02-10T10:10:02.583Z,1680.00
2019-02-10T10:11:02.625Z,1236.00
2019-02-10T10:12:02.525Z,1492.00
2019-02-10T10:13:02.516Z,1500.00
2019-02-10T10:14:02.495Z,1456.00
2019-02-10T10:15:02.486Z,1348.00
2019-02-10T10:16:02.485Z,1132.00
2019-02-10T10:17:02.483Z,1220.00
2019-02-10T10:18:02.479Z,1084.00
2019-02-10T10:19:02.512Z,1092.00
2019-02-10T10:20:02.489Z,1040.00
2019-02-10T10:21:02.484Z,1152.00
2019-02-10T10:22:02.470Z,864.00
2019-02-10T10:23:02.481Z,1120.00
2019-02-10T10:24:02.463Z,932.00
2019-02-10T10:25:02.456Z,1056.00
2019-02-10T10:26:02.457Z,740.00
2019-02-10T10:27:02.455Z,852.00
2019-02-10T10:28:02.450Z,652.00
2019-02-10T10:29:02.531Z,732.00
2019-02-10T10:30:02.449Z,660.00
2019-02-10T10:31:02.438Z,676.00
2019-02-10T10:32:02.442Z,668.00
2019-02-10T10:33:02.428Z,660.00
2019-02-10T10:34:02.430Z,752.00
2019-02-10T10:35:02.608Z,712.00
2019-02-10T10:36:02.421Z,872.00
2019-02-10T10:37:02.426Z,904.00
2019-02-10T10:38:02.459Z,920.00
2019-02-10T10:39:02.413Z,960.00
2019-02-10T10:40:02.414Z,996.00
2019-02-10T10:41:02.427Z,952.00
2019-02-10T10:42:02.422Z,988.00
2019-02-10T10:43:02.431Z,864.00
2019-02-10T10:44:02.396Z,1036.00
2019-02-10T10:45:02.393Z,796.00
2019-02-10T10:46:02.405Z,1000.00
2019-02-10T10:47:02.381Z,1172.00
2019-02-10T10:48:02.399Z,1120.00
2019-02-10T10:49:02.425Z,1120.00
2019-02-10T10:50:02.417Z,1096.00
2019-02-10T10:51:02.431Z,1208.00
2019-02-10T10:52:02.432Z,1128.00
2019-02-10T10:53:02.441Z,1136.00
2019-02-10T10:54:02.371Z,1144.00
2019-02-10T10:55:02.387Z,1172.00
2019-02-10T10:56:02.381Z,1140.00
2019-02-10T10:57:02.355Z,1040.00
2019-02-10T10:58:02.361Z,1036.00
2019-02-10T10:59:02.625Z,1064.00
2019-02-10T11:00:02.810Z,964.00
2019-02-10T11:01:02.352Z,964.00
2019-02-10T11:02:02.370Z,828.00
2019-02-10T11:03:02.370Z,984.00
2019-02-10T11:04:02.328Z,1008.00
2019-02-10T11:05:02.401Z,820.00
2019-02-10T11:06:02.326Z,912.00
2019-02-10T11:07:02.333Z,1000.00
2019-02-10T11:08:02.347Z,1016.00
2019-02-10T11:09:02.325Z,1052.00
2019-02-10T11:10:02.368Z,904.00
2019-02-10T11:11:02.339Z,1100.00
2019-02-10T11:12:02.343Z,992.00
2019-02-10T11:13:02.349Z,1080.00
2019-02-10T11:14:02.338Z,1080.00
2019-02-10T11:15:02.390Z,1124.00
2019-02-10T11:16:02.320Z,792.00
2019-02-10T11:17:02.334Z,980.00
2019-02-10T11:18:02.494Z,868.00
2019-02-10T11:19:02.339Z,948.00
2019-02-10T11:20:02.289Z,884.00
2019-02-10T11:21:02.306Z,1108.00
2019-02-10T11:22:02.325Z,932.00
2019-02-10T11:23:02.291Z,1168.00
2019-02-10T11:24:02.288Z,1112.00
2019-02-10T11:25:02.252Z,1088.00
2019-02-10T11:26:02.253Z,960.00
2019-02-10T11:27:02.247Z,1012.00
2019-02-10T11:28:02.271Z,772.00
2019-02-10T11:29:02.306Z,1048.00
2019-02-10T11:30:03.982Z,1008.00
2019-02-10T11:31:02.276Z,1008.00
2019-02-10T11:32:02.238Z,876.00
2019-02-10T11:33:02.264Z,792.00
2019-02-10T11:34:02.263Z,696.00
2019-02-10T11:35:02.252Z,692.00
2019-02-10T11:36:02.216Z,604.00
2019-02-10T11:37:02.611Z,616.00
2019-02-10T11:38:02.233Z,580.00
2019-02-10T11:39:02.238Z,512.00
2019-02-10T11:40:02.253Z,516.00
2019-02-10T11:41:02.227Z,544.00
2019-02-10T11:42:02.348Z,584.00
2019-02-10T11:43:02.215Z,588.00
2019-02-10T11:44:02.240Z,636.00
2019-02-10T11:45:02.208Z,736.00
2019-02-10T11:46:02.185Z,720.00
2019-02-10T11:47:02.217Z,648.00
2019-02-10T11:48:02.233Z,584.00
2019-02-10T11:49:02.194Z,632.00
2019-02-10T11:50:02.199Z,620.00
2019-02-10T11:51:02.205Z,680.00
2019-02-10T11:52:02.342Z,668.00
2019-02-10T11:53:02.182Z,688.00
2019-02-10T11:54:02.194Z,724.00
2019-02-10T11:55:02.185Z,628.00
2019-02-10T11:56:02.361Z,624.00
2019-02-10T11:57:02.182Z,660.00
2019-02-10T11:58:02.153Z,588.00
2019-02-10T11:59:02.169Z,640.00
2019-02-10T12:00:02.151Z,544.00
2019-02-10T12:01:02.161Z,612.00
2019-02-10T12:02:02.165Z,592.00
2019-02-10T12:03:02.152Z,476.00
2019-02-10T12:04:02.178Z,340.00
2019-02-10T12:05:02.133Z,344.00
2019-02-10T12:06:02.117Z,300.00
2019-02-10T12:07:02.132Z,272.00
2019-02-10T12:08:02.107Z,268.00
2019-02-10T12:09:02.125Z,240.00
2019-02-10T12:10:02.141Z,288.00
2019-02-10T12:11:02.097Z,260.00
2019-02-10T12:12:02.132Z,276.00
2019-02-10T12:13:02.092Z,320.00
2019-02-10T12:14:02.099Z,364.00
2019-02-10T12:15:02.106Z,348.00
2019-02-10T12:16:02.122Z,356.00
2019-02-10T12:17:02.078Z,336.00
2019-02-10T12:18:02.055Z,280.00
2019-02-10T12:19:02.079Z,264.00
2019-02-10T12:20:02.067Z,216.00
2019-02-10T12:21:02.061Z,208.00
2019-02-10T12:22:02.053Z,196.00
2019-02-10T12:23:02.104Z,220.00
2019-02-10T12:24:02.045Z,228.00
2019-02-10T12:25:02.190Z,236.00
2019-02-10T12:26:02.144Z,228.00
2019-02-10T12:27:02.012Z,216.00
2019-02-10T12:28:02.223Z,204.00
2019-02-10T12:29:02.314Z,228.00
2019-02-10T12:30:03.205Z,212.00
2019-02-10T12:31:02.227Z,196.00
2019-02-10T12:32:02.634Z,184.00
2019-02-10T12:33:02.222Z,188.00
2019-02-10T12:34:02.134Z,184.00
2019-02-10T12:35:02.095Z,184.00
2019-02-10T12:36:01.970Z,188.00
2019-02-10T12:37:01.963Z,184.00
2019-02-10T12:38:02.078Z,204.00
2019-02-10T12:39:02.009Z,204.00
2019-02-10T12:40:01.970Z,208.00
2019-02-10T12:41:01.946Z,228.00
2019-02-10T12:42:01.957Z,252.00
2019-02-10T12:43:02.049Z,216.00
2019-02-10T12:44:01.965Z,220.00
2019-02-10T12:45:01.936Z,220.00
2019-02-10T12:46:01.927Z,224.00
2019-02-10T12:47:01.949Z,228.00
2019-02-10T12:48:02.082Z,232.00
2019-02-10T12:49:01.954Z,208.00
2019-02-10T12:50:01.901Z,184.00
2019-02-10T12:51:01.947Z,216.00
2019-02-10T12:52:01.926Z,224.00
2019-02-10T12:53:01.882Z,216.00
2019-02-10T12:54:01.876Z,244.00
2019-02-10T12:55:01.891Z,232.00
2019-02-10T12:56:01.918Z,268.00
2019-02-10T12:57:01.860Z,268.00
2019-02-10T12:58:01.888Z,264.00
2019-02-10T12:59:01.895Z,272.00
2019-02-10T13:00:01.878Z,288.00
2019-02-10T13:01:01.862Z,272.00
2019-02-10T13:02:01.830Z,260.00
2019-02-10T13:03:01.851Z,264.00
2019-02-10T13:04:01.885Z,256.00
2019-02-10T13:05:01.864Z,208.00
2019-02-10T13:06:01.812Z,196.00
2019-02-10T13:07:01.817Z,260.00
2019-02-10T13:08:01.841Z,256.00